Nearby METAR Reports

 

KIAD - Wash Dc/Dulles, Virginia, USA
Distance from station: ESE 7mi, 11km
Updated: Thu, 17-Jan-2019 7:52pm EST
Light snow, Mist, Overcast
Light snow, Mist, Overcast
 Wind from SE
Wind: SE 3 mph , 6 km/h
Temperature: 32°F , 0°C
Dew Point: 32°F , 0°C
Humidity: 100%
Barometer: 30.21 inHg , 1023 hPa
Summary: Light snow, Mist
Clouds: Overcast
Visibility: 1 1/4 miles , 2 km
Cloud details: Mostly cloudy 500 ft
Overcast 1600 ft
2019/01/18 00:52 KIAD 180052Z 13003KT 1 1/4SM -SN BR BKN005 OVC016 00/00 A3021 RMK AO2 SLP234 P0004 T00000000
KJYO - Leesburg/Godfrey, Virginia, USA
Distance from station: N 7mi, 12km
Updated: Thu, 17-Jan-2019 7:55pm EST
Light snow, Overcast
Light snow, Overcast
 Wind from ESE
Wind: ESE 3 mph , 6 km/h
Temperature: 32°F , 0°C
Dew Point: 32°F , 0°C
Humidity: 100%
Barometer: 30.22 inHg , 1023.4 hPa
Summary: Light Snow
Clouds: Overcast
Visibility: 2 1/2 miles , 4 km
Cloud details: Overcast 400 ft
2019/01/18 00:55 KJYO 180055Z AUTO 12003KT 2 1/2SM -SN OVC004 00/00 A3022 RMK AO2
 
KHEF - Manassas Muni, Virginia, USA
Distance from station: S 17mi, 28km
Updated: Thu, 17-Jan-2019 7:56pm EST
Mist, Overcast
Mist, Overcast
 Wind from calm
Wind: Calm
Temperature: 32°F , 0°C
Dew Point: 28°F , -2°C
Humidity: 87%
Barometer: 30.22 inHg , 1023.4 hPa
Summary: Mist
Clouds: Overcast
Visibility: 3/4 mile , 1.2 km
Cloud details: Overcast 500 ft
2019/01/18 00:56 KHEF 180056Z 00000KT 3/4SM BR OVC005 00/M02 A3022 RMK AO2 SLP247 T00001017 PNO $
KGAI - Gaithersburg, Maryland, USA
Distance from station: NE 26mi, 41km
Updated: Thu, 17-Jan-2019 7:56pm EST
Light snow, Mist, Mostly cloudy
Light snow, Mist, Mostly cloudy
 Wind from ESE
Wind: ESE 5 mph , 7 km/h
Temperature: 28°F , -2°C
Wind Chill: 22°F , -6°C
Dew Point: 27°F , -3°C
Humidity: 93%
Barometer: 30.21 inHg , 1023 hPa
Summary: Light snow, Mist
Clouds: Mostly cloudy
Visibility: 2 1/2 miles , 4 km
Cloud details: Partly cloudy 400 ft
Partly cloudy 1600 ft
Mostly cloudy 2700 ft
2019/01/18 00:56 KGAI 180056Z AUTO 11004KT 2 1/2SM -SN BR SCT004 SCT016 BKN027 M02/M03 A3021 RMK AO2 SLP262 P0002 T10171028 FZRANO
 
KDAA - Fort Belvoir/Dav, Virginia, USA
Distance from station: SE 27mi, 44km
Updated: Thu, 17-Jan-2019 7:56pm EST
Light snow, Mist, Overcast
Light snow, Mist, Overcast
 Wind from calm
Wind: Calm
Temperature: 32°F , 0°C
Dew Point: 30°F , -1°C
Humidity: 93%
Barometer: 30.23 inHg , 1023.7 hPa
Summary: Light snow, Mist
Clouds: Overcast
Visibility: 1 7/8 miles , 3 km
Cloud details: Overcast 600 ft
2019/01/18 00:56 KDAA 180056Z AUTO 00000KT 1 7/8SM -SN BR OVC006 00/M01 A3023 RMK AO2 CIG 006V008 SLP241 P0003 T00021008
KHWY - Warrenton, Virginia, USA
Distance from station: SSW 27mi, 44km
Updated: Thu, 17-Jan-2019 7:55pm EST
Rain, Overcast
Rain, Overcast
 Wind from calm
Wind: Calm
Temperature: 34°F , 1°C
Dew Point: 32°F , 0°C
Humidity: 93%
Barometer: 30.21 inHg , 1023 hPa
Summary: Rain
Clouds: Overcast
Visibility: 1 1/4 miles , 2 km
Cloud details: Partly cloudy 400 ft
Overcast 1600 ft
2019/01/18 00:55 KHWY 180055Z AUTO 00000KT 1 1/4SM RA SCT004 OVC016 01/00 A3021 RMK AO2 P0002 T00071003
 
KDCA - Washington/Natl, Washington D.c., USA
Distance from station: ESE 30mi, 48km
Updated: Thu, 17-Jan-2019 7:55pm EST
Light snow, Mist, Overcast
Light snow, Mist, Overcast
 Wind from E
Wind: E 3 mph , 6 km/h
Temperature: 34°F , 1°C
Dew Point: 30°F , -1°C
Humidity: 87%
Barometer: 30.24 inHg , 1024 hPa
Summary: Light snow, Mist
Clouds: Overcast
Visibility: 1 1/4 miles , 2 km
Cloud details: Partly cloudy 500 ft
Overcast 1400 ft
2019/01/18 00:55 KDCA 180055Z 08003KT 1 1/4SM -SN BR SCT005 OVC014 01/M01 A3024 RMK AO2 P0000 T00111006
KFDK - Frederick, Maryland, USA
Distance from station: NNE 33mi, 53km
Updated: Thu, 17-Jan-2019 7:47pm EST
Light snow, Overcast
Light snow, Overcast
 Wind from calm
Wind: Calm
Temperature: 32°F , 0°C
Dew Point: 30°F , -1°C
Humidity: 93%
Barometer: 30.25 inHg , 1024.4 hPa
Summary: Light Snow
Clouds: Overcast
Visibility: 3 miles , 5 km
Cloud details: Partly cloudy 700 ft
Overcast 3000 ft
2019/01/18 00:47 KFDK 180047Z 00000KT 3SM -SN SCT007 OVC030 00/M01 A3025
 
KOKV - Winchester Rgnl, Virginia, USA
Distance from station: WNW 33mi, 54km
Updated: Thu, 17-Jan-2019 7:55pm EST
Mist, Overcast
Mist, Overcast
 Wind from calm
Wind: Calm
Temperature: 30°F , -1°C
Dew Point: 30°F , -1°C
Humidity: 100%
Barometer: 30.18 inHg , 1022 hPa
Summary: Mist
Clouds: Overcast
Visibility: 4 miles , 6 km
Cloud details: Partly cloudy 400 ft
Mostly cloudy 3400 ft
Overcast 7500 ft
2019/01/18 00:55 KOKV 180055Z AUTO 00000KT 4SM BR SCT004 BKN034 OVC075 M01/M01 A3018 RMK AO2
KCJR - Culpeper, Virginia, USA
Distance from station: SSW 34mi, 54km
Updated: Thu, 17-Jan-2019 7:50pm EST
Light snow, Overcast
Light snow, Overcast
 Wind from calm
Wind: Calm
Temperature: 32°F , 0°C
Dew Point: 32°F , 0°C
Humidity: 100%
Barometer: 30.22 inHg , 1023.4 hPa
Summary: Light Snow
Clouds: Overcast
Visibility: 1 1/2 miles , 2.4 km
Cloud details: Mostly cloudy 500 ft
Overcast 1800 ft
2019/01/18 00:50 KCJR 180050Z AUTO 00000KT 1 1/2SM -SN BKN005 OVC018 00/00 A3022 RMK AO2 T00041001
 
KCGS - College Park, Maryland, USA
Distance from station: E 35mi, 56km
Updated: Thu, 17-Jan-2019 7:43pm EST
Overcast
Overcast
 Wind from calm
Wind: Calm
Temperature: 30°F , -1°C
Dew Point: 28°F , -2°C
Humidity: 93%
Barometer: 30.24 inHg , 1024 hPa
Clouds: Overcast
Visibility: 1 1/4 miles , 2 km
Cloud details: Overcast 800 ft
2019/01/18 00:43 KCGS 180043Z AUTO 00000KT 1 1/4SM OVC008 M01/M02 A3024 RMK AO1 T10081016
KNYG - Quantico Mcaf, Virginia, USA
Distance from station: SSE 35mi, 57km
Updated: Thu, 17-Jan-2019 7:56pm EST
Mist, Overcast
Mist, Overcast
 Wind from SSE
Wind: SSE 5 mph , 7 km/h
Temperature: 34°F , 1°C
Wind Chill: 29°F , -2°C
Dew Point: 34°F , 1°C
Humidity: 100%
Barometer: 30.24 inHg , 1024 hPa
Summary: Mist
Clouds: Overcast
Visibility: 6 miles , 10 km
Cloud details: Few Clouds 1300 ft
Partly cloudy 2300 ft
Overcast 3600 ft
2019/01/18 00:56 KNYG 180056Z AUTO 16004KT 6SM UP BR FEW013 SCT023 OVC036 01/01 A3024 RMK AO2 UPB55SNE55 SLP240 P0002 T00110011
 
KFRR - Fort Royal, Virginia, USA
Distance from station: W 37mi, 59km
Updated: Thu, 17-Jan-2019 7:55pm EST
Overcast
Overcast
 
Temperature: 32°F , 0°C
Dew Point: 32°F , 0°C
Humidity: 100%
Barometer: 30.16 inHg , 1021.3 hPa
Clouds: Overcast
Visibility: 5 miles , 8 km
Cloud details: Partly cloudy 4200 ft
Overcast 7500 ft
2019/01/18 00:55 KFRR 180055Z AUTO 5SM SCT042 OVC075 00/00 A3016 RMK AO1
KMRB - Martinsburg, West Virginia, USA
Distance from station: NW 38mi, 61km
Updated: Thu, 17-Jan-2019 8:01pm EST
Mist, Overcast
Mist, Overcast
 Wind from calm
Wind: Calm
Temperature: 30°F , -1°C
Dew Point: 30°F , -1°C
Humidity: 100%
Barometer: 30.17 inHg , 1021.7 hPa
Summary: Mist
Clouds: Overcast
Visibility: 4 miles , 6 km
Cloud details: Partly cloudy 700 ft
Partly cloudy 1700 ft
Overcast 7500 ft
2019/01/18 01:01 KMRB 180101Z 00000KT 4SM BR SCT007 SCT017 OVC075 M01/M01 A3017 RMK AO2 T10061011
 
KADW - Andrews Afb, Maryland, USA
Distance from station: ESE 39mi, 63km
Updated: Thu, 17-Jan-2019 7:56pm EST
Light snow, Mist, Overcast
Light snow, Mist, Overcast
 Wind from calm
Wind: Calm
Temperature: 32°F , 0°C
Dew Point: 30°F , -1°C
Humidity: 93%
Barometer: 30.22 inHg , 1023.4 hPa
Summary: Light snow, Mist
Clouds: Overcast
Visibility: 1 3/4 miles , 2.8 km
Cloud details: Overcast 1100 ft
2019/01/18 00:56 KADW 180056Z 00000KT 1 3/4SM -SN BR OVC011 00/M01 A3022 RMK AO2A CIG 002 RWY19L SLP244 P0000 T10031012 $
KRMN - Stafford Regnl, Virginia, USA
Distance from station: S 39mi, 63km
Updated: Thu, 17-Jan-2019 7:55pm EST
Light Snow
Light Snow
 Wind from calm
Wind: Calm
Temperature: 34°F , 1°C
Dew Point: 34°F , 1°C
Humidity: 100%
Barometer: 30.26 inHg , 1024.7 hPa
Summary: Light Snow
Visibility: 2 1/2 miles , 4 km
2019/01/18 00:55 KRMN 180055Z AUTO 00000KT 2 1/2SM -SN 01/01 A3026 RMK AO2 SKY OBSCURED P0005 T00070007
 
KFME - Fort Meade, Maryland, USA
Distance from station: ENE 44mi, 70km
Updated: Thu, 17-Jan-2019 7:39pm EST
Overcast
Overcast
 Wind from calm
Wind: Calm
Temperature: 32°F , 0°C
Dew Point: 30°F , -1°C
Humidity: 93%
Barometer: 30.26 inHg , 1024.7 hPa
Clouds: Overcast
Visibility: 2 1/2 miles , 4 km
Cloud details: Overcast 1100 ft
2019/01/18 00:39 KFME 180039Z AUTO 00000KT 2 1/2SM OVC011 00/M01 A3026 RMK AO1
KRSP - Nsf Thurmont, Maryland, USA
Distance from station: N 48mi, 77km
Updated: Thu, 15-Nov-2018 8:54am EST
NOT Current
Snow, Freezing, Fog, Overcast
Snow, Freezing, Fog, Overcast
 Wind from ESE
Wind: ESE 9 mph , 15 km/h, Gust: 17 mph , 28 km/h
Temperature: 23°F , -5°C
Wind Chill: 13°F , -11°C
Dew Point: 21°F , -6°C
Humidity: 93%
Barometer: 30.45 inHg , 1031.2 hPa
Summary: Snow, Freezing, Fog
Clouds: Overcast
Visibility: 1/4 mile , 0.4 km
Cloud details: Overcast 500 ft
2018/11/15 13:54 KRSP 151354Z AUTO 11008G15KT 1/4SM SN FZFG VV005 M05/M06 A3045 RMK AO2 SLP340 P0018 T10501056 $
 
KEZF - Fredericksb/Shan, Virginia, USA
Distance from station: S 48mi, 78km
Updated: Thu, 17-Jan-2019 7:55pm EST
Light rain, Overcast
Light rain, Overcast
 Wind from calm
Wind: Calm
Temperature: 34°F , 1°C
Dew Point: 34°F , 1°C
Humidity: 100%
Barometer: 30.21 inHg , 1023 hPa
Summary: Light rain
Clouds: Overcast
Visibility: 4 miles , 6 km
Cloud details: Partly cloudy 2300 ft
Mostly cloudy 6000 ft
Overcast 6500 ft
2019/01/18 00:55 KEZF 180055Z AUTO 00000KT 4SM -RA SCT023 BKN060 OVC065 01/01 A3021 RMK AO2 T00060006
KBWI - Balto/Wash Intl, Maryland, USA
Distance from station: ENE 49mi, 80km
Updated: Thu, 17-Jan-2019 7:54pm EST
Light snow, Mist, Overcast
Light snow, Mist, Overcast
 Wind from E
Wind: E 6 mph , 9 km/h
Temperature: 30°F , -1°C
Wind Chill: 24°F , -4°C
Dew Point: 28°F , -2°C
Humidity: 93%
Barometer: 30.23 inHg , 1023.7 hPa
Summary: Light snow, Mist
Clouds: Overcast
Visibility: 1 mile , 2 km
Cloud details: Few Clouds 900 ft
Overcast 1600 ft
2019/01/18 00:54 KBWI 180054Z 09005KT 1SM R10/P6000FT -SN BR FEW009 OVC016 M01/M02 A3023 RMK AO2 SLP238 P0003 T10061017